createdAt,value
2019-02-06T00:01:32.829Z,19.10
2019-02-06T00:04:02.704Z,21.37
2019-02-06T00:06:32.645Z,22.67
2019-02-06T00:09:04.581Z,20.17
2019-02-06T00:11:35.113Z,16.47
2019-02-06T00:14:05.383Z,14.70
2019-02-06T00:16:35.664Z,15.90
2019-02-06T00:19:05.814Z,17.37
2019-02-06T00:21:36.400Z,17.37
2019-02-06T00:24:07.340Z,18.43
2019-02-06T00:26:37.244Z,10.87
2019-02-06T00:29:07.068Z,14.83
2019-02-06T00:31:37.384Z,13.73
2019-02-06T00:34:07.296Z,14.87
2019-02-06T00:36:37.313Z,15.63
2019-02-06T00:39:10.501Z,14.00
2019-02-06T00:41:40.467Z,14.77
2019-02-06T00:44:10.439Z,16.53
2019-02-06T00:46:40.247Z,17.00
2019-02-06T00:49:10.276Z,16.50
2019-02-06T00:51:39.886Z,20.03
2019-02-06T00:54:09.780Z,16.90
2019-02-06T00:56:39.389Z,21.53
2019-02-06T00:59:09.427Z,17.00
2019-02-06T01:01:39.099Z,21.87
2019-02-06T01:04:09.332Z,23.73
2019-02-06T01:06:38.973Z,22.70
2019-02-06T01:09:10.710Z,23.27
2019-02-06T01:11:40.304Z,17.73
2019-02-06T01:14:09.916Z,16.40
2019-02-06T01:16:39.716Z,18.83
2019-02-06T01:19:09.833Z,12.33
2019-02-06T01:21:39.724Z,15.23
2019-02-06T01:24:09.457Z,18.03
2019-02-06T01:26:39.008Z,18.70
2019-02-06T01:29:08.624Z,16.93
2019-02-06T01:31:38.476Z,17.27
2019-02-06T01:34:08.624Z,18.27
2019-02-06T01:36:38.415Z,20.73
2019-02-06T01:39:12.733Z,19.67
2019-02-06T01:41:42.342Z,20.23
2019-02-06T01:44:11.884Z,18.73
2019-02-06T01:46:41.748Z,18.03
2019-02-06T01:49:11.280Z,16.60
2019-02-06T01:51:41.167Z,21.03
2019-02-06T01:54:10.736Z,18.53
2019-02-06T01:56:40.676Z,18.17
2019-02-06T01:59:10.391Z,17.80
2019-02-06T02:01:40.140Z,23.73
2019-02-06T02:04:09.785Z,17.50
2019-02-06T02:06:39.620Z,18.90
2019-02-06T02:09:18.752Z,21.20
2019-02-06T02:11:48.870Z,20.03
2019-02-06T02:14:18.781Z,15.13
2019-02-06T02:16:48.627Z,18.40
2019-02-06T02:19:18.445Z,18.40
2019-02-06T02:21:48.076Z,16.23
2019-02-06T02:24:17.651Z,16.03
2019-02-06T02:26:47.470Z,15.50
2019-02-06T02:29:17.345Z,17.23
2019-02-06T02:31:47.464Z,18.63
2019-02-06T02:34:17.056Z,16.07
2019-02-06T02:36:46.626Z,18.23
2019-02-06T02:39:16.588Z,16.70
2019-02-06T02:41:46.234Z,17.07
2019-02-06T02:44:15.787Z,17.73
2019-02-06T02:46:45.352Z,18.40
2019-02-06T02:49:15.152Z,15.83
2019-02-06T02:51:45.141Z,16.43
2019-02-06T02:54:14.814Z,18.43
2019-02-06T02:56:44.447Z,16.20
2019-02-06T02:59:14.180Z,18.33
2019-02-06T03:01:54.018Z,16.07
2019-02-06T03:04:40.176Z,16.43
2019-02-06T03:07:09.880Z,16.43
2019-02-06T03:09:40.021Z,12.57
2019-02-06T03:12:09.934Z,16.70
2019-02-06T03:14:39.468Z,15.03
2019-02-06T03:17:24.825Z,15.27
2019-02-06T03:19:54.625Z,15.97
2019-02-06T03:22:24.436Z,13.60
2019-02-06T03:24:57.420Z,20.43
2019-02-06T03:27:27.001Z,19.30
2019-02-06T03:29:56.843Z,13.47
2019-02-06T03:32:26.453Z,19.90
2019-02-06T03:34:56.352Z,17.73
2019-02-06T03:37:26.171Z,13.67
2019-02-06T03:39:55.982Z,18.10
2019-02-06T03:42:26.095Z,20.40
2019-02-06T03:44:55.807Z,20.73
2019-02-06T03:47:25.617Z,14.67
2019-02-06T03:49:55.699Z,18.37
2019-02-06T03:52:25.456Z,19.13
2019-02-06T03:54:55.040Z,14.50
2019-02-06T03:57:24.701Z,15.23
2019-02-06T03:59:54.348Z,19.90
2019-02-06T04:02:24.177Z,18.07
2019-02-06T04:04:54.292Z,15.20
2019-02-06T04:07:24.517Z,15.70
2019-02-06T04:09:54.164Z,15.30
2019-02-06T04:12:23.833Z,18.23
2019-02-06T04:14:53.747Z,19.37
2019-02-06T04:17:23.296Z,17.80
2019-02-06T04:19:53.572Z,14.37
2019-02-06T04:22:23.110Z,17.93
2019-02-06T04:24:53.399Z,18.27
2019-02-06T04:27:22.936Z,18.43
2019-02-06T04:29:53.429Z,17.10
2019-02-06T04:32:41.367Z,13.63
2019-02-06T04:35:12.029Z,17.03
2019-02-06T04:37:41.565Z,17.40
2019-02-06T04:40:18.320Z,18.40
2019-02-06T04:42:48.648Z,17.80
2019-02-06T04:45:18.865Z,18.23
2019-02-06T04:47:48.402Z,21.23
2019-02-06T04:50:18.519Z,17.80
2019-02-06T04:52:48.352Z,20.27
2019-02-06T04:55:18.369Z,30.93
2019-02-06T04:57:48.352Z,27.33
2019-02-06T05:00:20.357Z,25.43
2019-02-06T05:02:50.277Z,19.87
2019-02-06T05:05:20.378Z,20.40
2019-02-06T05:07:50.085Z,20.80
2019-02-06T05:10:19.732Z,20.03
2019-02-06T05:12:49.600Z,19.73
2019-02-06T05:15:19.621Z,18.67
2019-02-06T05:17:49.245Z,20.27
2019-02-06T05:20:35.352Z,13.40
2019-02-06T05:23:05.348Z,17.20
2019-02-06T05:25:35.351Z,14.70
2019-02-06T05:28:05.684Z,17.77
2019-02-06T05:30:35.264Z,17.37
2019-02-06T05:33:05.240Z,16.17
2019-02-06T05:35:34.897Z,18.27
2019-02-06T05:38:04.923Z,24.53
2019-02-06T05:40:34.529Z,25.83
2019-02-06T05:43:04.456Z,24.87
2019-02-06T05:45:34.144Z,20.53
2019-02-06T05:48:03.790Z,18.83
2019-02-06T05:50:33.489Z,15.60
2019-02-06T05:53:03.100Z,20.50
2019-02-06T05:55:32.632Z,20.73
2019-02-06T05:58:02.594Z,23.13
2019-02-06T06:00:36.337Z,25.80
2019-02-06T06:03:06.420Z,22.80
2019-02-06T06:05:36.222Z,20.90
2019-02-06T06:08:06.232Z,23.33
2019-02-06T06:10:35.806Z,24.63
2019-02-06T06:13:05.452Z,27.10
2019-02-06T06:15:35.361Z,27.10
2019-02-06T06:18:05.480Z,22.87
2019-02-06T06:20:35.105Z,22.83
2019-02-06T06:23:04.719Z,26.13
2019-02-06T06:25:34.482Z,22.97
2019-02-06T06:28:04.414Z,24.57
2019-02-06T06:30:34.033Z,23.93
2019-02-06T06:33:03.833Z,27.17
2019-02-06T06:35:33.750Z,27.13
2019-02-06T06:38:03.314Z,26.97
2019-02-06T06:40:32.916Z,26.60
2019-02-06T06:43:02.774Z,25.60
2019-02-06T06:45:32.503Z,27.93
2019-02-06T06:48:02.032Z,20.50
2019-02-06T06:50:31.896Z,24.73
2019-02-06T06:53:01.715Z,24.47
2019-02-06T06:55:31.404Z,21.17
2019-02-06T06:58:01.251Z,26.10
2019-02-06T07:00:31.712Z,22.70
2019-02-06T07:03:01.566Z,18.93
2019-02-06T07:05:31.168Z,20.57
2019-02-06T07:08:09.195Z,20.97
2019-02-06T07:10:32.316Z,21.50
2019-02-06T07:13:01.897Z,19.20
2019-02-06T07:15:33.741Z,19.90
2019-02-06T07:18:05.765Z,22.23
2019-02-06T07:20:35.979Z,18.10
2019-02-06T07:23:05.992Z,21.50
2019-02-06T07:25:35.844Z,18.40
2019-02-06T07:28:05.748Z,18.00
2019-02-06T07:30:37.557Z,19.93
2019-02-06T07:33:07.488Z,19.73
2019-02-06T07:35:37.401Z,20.07
2019-02-06T07:38:06.957Z,28.27
2019-02-06T07:40:36.820Z,26.03
2019-02-06T07:43:07.144Z,25.60
2019-02-06T07:45:36.960Z,24.53
2019-02-06T07:48:06.567Z,22.07
2019-02-06T07:50:36.693Z,24.97
2019-02-06T07:53:06.295Z,26.27
2019-02-06T07:55:36.446Z,24.70
2019-02-06T07:58:06.730Z,27.77
2019-02-06T08:00:36.641Z,23.90
2019-02-06T08:03:06.979Z,21.47
2019-02-06T08:05:37.361Z,24.03
2019-02-06T08:08:07.300Z,19.73
2019-02-06T08:10:38.840Z,19.33
2019-02-06T08:13:08.747Z,20.90
2019-02-06T08:15:38.781Z,18.00
2019-02-06T08:18:09.001Z,18.20
2019-02-06T08:20:39.133Z,19.43
2019-02-06T08:23:08.736Z,21.43
2019-02-06T08:25:38.944Z,20.97
2019-02-06T08:28:08.648Z,20.83
2019-02-06T08:30:40.033Z,19.20
2019-02-06T08:33:10.328Z,18.60
2019-02-06T08:35:39.954Z,24.37
2019-02-06T08:38:10.260Z,24.47
2019-02-06T08:40:41.100Z,31.67
2019-02-06T08:43:22.298Z,25.70
2019-02-06T08:45:59.060Z,21.50
2019-02-06T08:48:28.600Z,18.60
2019-02-06T08:50:59.800Z,23.97
2019-02-06T08:53:30.112Z,23.53
2019-02-06T08:56:00.030Z,22.93
2019-02-06T08:58:54.209Z,21.17
2019-02-06T09:01:23.803Z,24.17
2019-02-06T09:03:53.565Z,23.27
2019-02-06T09:06:23.445Z,20.73
2019-02-06T09:08:59.722Z,23.87
2019-02-06T09:11:24.519Z,24.43
2019-02-06T09:13:54.152Z,20.87
2019-02-06T09:16:24.426Z,19.07
2019-02-06T09:19:00.639Z,26.37
2019-02-06T09:21:30.601Z,26.53
2019-02-06T09:24:00.420Z,27.73
2019-02-06T09:26:33.956Z,26.40
2019-02-06T09:29:01.680Z,19.80
2019-02-06T09:31:31.572Z,26.50
2019-02-06T09:34:01.400Z,25.07
2019-02-06T09:36:31.717Z,22.13
2019-02-06T09:39:11.341Z,27.33
2019-02-06T09:41:32.928Z,27.30
2019-02-06T09:44:02.476Z,30.63
2019-02-06T09:46:32.294Z,19.27
2019-02-06T09:49:02.101Z,23.23
2019-02-06T09:51:32.602Z,26.23
2019-02-06T09:54:02.445Z,22.73
2019-02-06T09:56:32.257Z,25.50
2019-02-06T09:59:02.061Z,23.53
2019-02-06T10:01:31.608Z,23.30
2019-02-06T10:04:12.239Z,23.60
2019-02-06T10:06:42.153Z,25.73
2019-02-06T10:09:22.293Z,22.80
2019-02-06T10:11:43.613Z,18.07
2019-02-06T10:14:20.588Z,19.33
2019-02-06T10:16:50.912Z,30.93
2019-02-06T10:19:20.463Z,20.87
2019-02-06T10:21:53.596Z,27.87
2019-02-06T10:24:22.191Z,25.90
2019-02-06T10:26:52.105Z,26.17
2019-02-06T10:29:21.925Z,28.13
2019-02-06T10:31:52.242Z,22.63
2019-02-06T10:34:21.775Z,19.77
2019-02-06T10:37:29.972Z,25.63
2019-02-06T10:39:59.865Z,28.40
2019-02-06T10:42:29.625Z,26.40
2019-02-06T10:44:59.606Z,30.73
2019-02-06T10:47:39.547Z,22.03
2019-02-06T10:50:10.805Z,24.27
2019-02-06T10:52:40.968Z,21.27
2019-02-06T10:55:13.580Z,21.23
2019-02-06T10:57:43.597Z,22.27
2019-02-06T11:00:17.500Z,27.53
2019-02-06T11:02:47.417Z,26.17
2019-02-06T11:05:17.951Z,24.03
2019-02-06T11:07:47.966Z,21.20
2019-02-06T11:10:18.597Z,32.73
2019-02-06T11:12:48.608Z,23.07
2019-02-06T11:15:18.726Z,22.37
2019-02-06T11:17:48.615Z,28.00
2019-02-06T11:20:19.634Z,24.70
2019-02-06T11:22:49.253Z,29.90
2019-02-06T11:25:19.403Z,25.63
2019-02-06T11:27:49.098Z,24.00
2019-02-06T11:30:21.385Z,25.47
2019-02-06T11:32:52.008Z,21.10
2019-02-06T11:35:21.821Z,21.03
2019-02-06T11:37:51.629Z,18.27
2019-02-06T11:40:22.971Z,32.20
2019-02-06T11:42:53.097Z,19.83
2019-02-06T11:45:26.292Z,21.17
2019-02-06T11:47:55.969Z,22.10
2019-02-06T11:50:33.479Z,25.57
2019-02-06T11:53:07.437Z,28.73
2019-02-06T11:55:37.135Z,24.30
2019-02-06T11:58:07.737Z,21.80
2019-02-06T12:01:10.419Z,31.43
2019-02-06T12:03:40.336Z,26.67
2019-02-06T12:06:10.649Z,29.70
2019-02-06T12:08:40.561Z,23.53
2019-02-06T12:11:10.780Z,29.93
2019-02-06T12:13:41.007Z,30.20
2019-02-06T12:16:28.380Z,20.43
2019-02-06T12:18:58.451Z,19.57
2019-02-06T12:21:27.980Z,19.53
2019-02-06T12:23:57.884Z,36.50
2019-02-06T12:26:27.566Z,24.47
2019-02-06T12:29:09.228Z,19.70
2019-02-06T12:31:39.234Z,22.97
2019-02-06T12:34:09.187Z,19.63
2019-02-06T12:36:38.822Z,21.47
2019-02-06T12:39:14.689Z,26.40
2019-02-06T12:41:44.223Z,26.73
2019-02-06T12:44:14.064Z,21.97
2019-02-06T12:46:44.288Z,23.83
2019-02-06T12:50:08.298Z,23.20
2019-02-06T12:52:37.917Z,18.20
2019-02-06T12:55:10.581Z,19.37
2019-02-06T12:57:40.569Z,21.80
2019-02-06T13:00:15.088Z,23.17
2019-02-06T13:02:44.644Z,23.67
2019-02-06T13:05:14.913Z,19.00
2019-02-06T13:07:44.616Z,25.17
2019-02-06T13:10:14.844Z,22.73
2019-02-06T13:12:44.661Z,28.83
2019-02-06T13:15:14.641Z,23.93
2019-02-06T13:17:44.884Z,22.60
2019-02-06T13:20:21.071Z,17.67
2019-02-06T13:22:51.155Z,18.67
2019-02-06T13:25:21.033Z,21.13
2019-02-06T13:27:50.675Z,26.90
2019-02-06T13:30:25.664Z,22.00
2019-02-06T13:32:55.984Z,26.47
2019-02-06T13:35:25.540Z,25.60
2019-02-06T13:37:55.204Z,18.97
2019-02-06T13:40:26.296Z,17.50
2019-02-06T13:42:56.388Z,22.40
2019-02-06T13:45:28.896Z,19.47
2019-02-06T13:48:13.550Z,23.47
2019-02-06T13:50:43.569Z,21.43
2019-02-06T13:53:13.184Z,21.10
2019-02-06T13:55:43.196Z,18.43
2019-02-06T13:58:37.517Z,19.83
2019-02-06T14:01:07.513Z,18.80
2019-02-06T14:03:37.396Z,25.10
2019-02-06T14:06:07.625Z,20.37
2019-02-06T14:08:39.406Z,18.97
2019-02-06T14:11:09.399Z,20.53
2019-02-06T14:13:39.512Z,20.27
2019-02-06T14:16:10.069Z,14.30
2019-02-06T14:18:39.953Z,18.10
2019-02-06T14:21:36.215Z,18.83
2019-02-06T14:24:25.244Z,21.53
2019-02-06T14:27:30.077Z,20.73
2019-02-06T14:30:42.668Z,20.93
2019-02-06T14:33:56.288Z,26.73
2019-02-06T14:36:59.108Z,22.47
2019-02-06T14:39:44.381Z,19.47
2019-02-06T14:42:36.894Z,17.87
2019-02-06T14:45:56.804Z,26.63
2019-02-06T14:48:50.508Z,17.27
2019-02-06T14:51:50.501Z,26.93
2019-02-06T14:54:56.870Z,16.23
2019-02-06T14:57:56.276Z,18.23
2019-02-06T15:00:46.860Z,16.10
2019-02-06T15:03:45.016Z,34.73
2019-02-06T15:06:57.759Z,18.20
2019-02-06T15:10:08.944Z,17.10
2019-02-06T15:13:28.413Z,17.47
2019-02-06T15:16:51.034Z,17.13
2019-02-06T15:19:59.805Z,17.40
2019-02-06T15:23:32.999Z,27.57
2019-02-06T15:26:23.929Z,21.87
2019-02-06T15:29:41.018Z,18.70
2019-02-06T15:32:53.881Z,15.07
2019-02-06T15:36:25.979Z,20.60
2019-02-06T15:39:26.290Z,20.50
2019-02-06T15:42:29.234Z,22.33
2019-02-06T15:45:22.816Z,27.73
2019-02-06T15:48:38.881Z,25.80
2019-02-06T15:51:49.353Z,23.93
2019-02-06T15:54:40.009Z,25.33
2019-02-06T15:57:35.973Z,18.93
2019-02-06T16:00:34.144Z,25.57
2019-02-06T16:03:16.892Z,24.60
2019-02-06T16:06:37.769Z,26.50
2019-02-06T16:09:47.004Z,27.97
2019-02-06T16:12:32.068Z,30.93
2019-02-06T16:15:44.713Z,31.70
2019-02-06T16:18:37.284Z,28.90
2019-02-06T16:21:57.829Z,30.57
2019-02-06T16:24:54.672Z,25.33
2019-02-06T16:27:50.289Z,25.57
2019-02-06T16:30:51.229Z,26.47
2019-02-06T16:33:50.133Z,30.07
2019-02-06T16:36:45.160Z,39.13
2019-02-06T16:39:31.225Z,27.93
2019-02-06T16:42:42.192Z,35.60
2019-02-06T16:45:51.446Z,29.13
2019-02-06T16:49:14.389Z,31.67
2019-02-06T16:52:10.613Z,26.90
2019-02-06T16:55:12.484Z,26.50
2019-02-06T16:58:24.684Z,28.30
2019-02-06T17:01:44.769Z,26.90
2019-02-06T17:04:41.265Z,25.97
2019-02-06T17:07:51.984Z,26.83
2019-02-06T17:10:57.812Z,25.53
2019-02-06T17:14:04.200Z,27.03
2019-02-06T17:17:01.508Z,30.30
2019-02-06T17:19:52.880Z,29.87
2019-02-06T17:23:05.412Z,38.35
2019-02-06T17:25:57.900Z,32.47
2019-02-06T17:28:50.447Z,47.87
2019-02-06T17:31:47.421Z,36.57
2019-02-06T17:34:58.403Z,32.80
2019-02-06T17:38:05.454Z,30.17
2019-02-06T17:41:09.496Z,25.83
2019-02-06T17:44:31.208Z,26.47
2019-02-06T17:47:15.682Z,24.70
2019-02-06T17:50:26.445Z,28.37
2019-02-06T17:53:27.997Z,27.97
2019-02-06T17:55:57.913Z,32.30
2019-02-06T17:58:30.802Z,31.00
2019-02-06T18:01:17.357Z,27.73
2019-02-06T18:03:57.404Z,30.13
2019-02-06T18:06:27.668Z,39.30
2019-02-06T18:09:13.287Z,41.27
2019-02-06T18:11:43.213Z,35.80
2019-02-06T18:14:13.083Z,33.00
2019-02-06T18:16:43.104Z,35.33
2019-02-06T18:19:12.909Z,32.60
2019-02-06T18:21:42.725Z,32.77
2019-02-06T18:24:12.568Z,30.13
2019-02-06T18:26:45.144Z,27.13
2019-02-06T18:29:14.781Z,28.40
2019-02-06T18:31:44.544Z,35.40
2019-02-06T18:34:14.231Z,31.93
2019-02-06T18:36:43.840Z,27.27
2019-02-06T18:39:14.611Z,29.13
2019-02-06T18:41:44.689Z,27.83
2019-02-06T18:44:14.409Z,23.47
2019-02-06T18:46:45.437Z,25.77
2019-02-06T18:49:16.376Z,26.47
2019-02-06T18:51:46.157Z,25.33
2019-02-06T18:54:16.054Z,30.10
2019-02-06T18:56:46.072Z,28.17
2019-02-06T18:59:15.757Z,29.50
2019-02-06T19:01:45.681Z,30.67
2019-02-06T19:04:17.768Z,31.80
2019-02-06T19:06:49.558Z,34.47
2019-02-06T19:09:20.296Z,37.77
2019-02-06T19:11:49.945Z,32.27
2019-02-06T19:14:20.368Z,34.03
2019-02-06T19:16:56.479Z,31.53
2019-02-06T19:19:26.012Z,33.37
2019-02-06T19:21:55.608Z,31.87
2019-02-06T19:24:26.113Z,31.97
2019-02-06T19:27:03.096Z,32.77
2019-02-06T19:29:32.756Z,26.90
2019-02-06T19:32:02.717Z,31.57
2019-02-06T19:34:32.528Z,27.53
2019-02-06T19:37:02.344Z,25.27
2019-02-06T19:39:32.456Z,26.93
2019-02-06T19:42:02.273Z,29.97
2019-02-06T19:44:32.174Z,28.50
2019-02-06T19:47:01.940Z,25.70
2019-02-06T19:49:31.556Z,29.27
2019-02-06T19:52:01.560Z,38.17
2019-02-06T19:54:31.423Z,27.57
2019-02-06T19:57:01.237Z,37.33
2019-02-06T19:59:31.157Z,29.83
2019-02-06T20:02:00.865Z,34.57
2019-02-06T20:04:30.472Z,42.90
2019-02-06T20:07:00.041Z,33.67
2019-02-06T20:09:30.410Z,30.57
2019-02-06T20:12:00.072Z,29.67
2019-02-06T20:14:30.323Z,27.90
2019-02-06T20:17:00.256Z,30.07
2019-02-06T20:19:30.140Z,23.90
2019-02-06T20:22:00.166Z,32.03
2019-02-06T20:24:30.122Z,32.67
2019-02-06T20:26:59.716Z,31.97
2019-02-06T20:29:29.614Z,32.33
2019-02-06T20:31:59.512Z,34.33
2019-02-06T20:34:29.333Z,32.90
2019-02-06T20:36:58.992Z,29.13
2019-02-06T20:39:28.840Z,29.80
2019-02-06T20:41:58.381Z,28.80
2019-02-06T20:44:29.793Z,29.57
2019-02-06T20:46:59.255Z,34.67
2019-02-06T20:49:33.825Z,33.45
2019-02-06T20:52:10.184Z,32.87
2019-02-06T20:54:40.404Z,30.23
2019-02-06T20:57:13.755Z,29.93
2019-02-06T20:59:41.897Z,31.23
2019-02-06T21:02:11.793Z,26.50
2019-02-06T21:04:41.339Z,33.27
2019-02-06T21:07:11.209Z,26.73
2019-02-06T21:09:40.792Z,31.20
2019-02-06T21:12:10.336Z,29.67
2019-02-06T21:14:40.228Z,31.50
2019-02-06T21:17:10.142Z,32.50
2019-02-06T21:19:39.728Z,27.37
2019-02-06T21:22:09.663Z,38.73
2019-02-06T21:24:39.212Z,31.77
2019-02-06T21:27:09.081Z,35.87
2019-02-06T21:29:39.396Z,38.10
2019-02-06T21:32:08.957Z,31.67
2019-02-06T21:34:38.864Z,35.63
2019-02-06T21:37:09.046Z,35.87
2019-02-06T21:39:38.707Z,35.37
2019-02-06T21:42:08.557Z,43.80
2019-02-06T21:44:38.127Z,36.67
2019-02-06T21:47:08.185Z,40.10
2019-02-06T21:49:39.117Z,45.57
2019-02-06T21:52:09.034Z,40.80
2019-02-06T21:54:38.800Z,32.60
2019-02-06T21:57:08.649Z,34.97
2019-02-06T21:59:38.569Z,41.83
2019-02-06T22:02:08.841Z,39.27
2019-02-06T22:04:38.412Z,37.83
2019-02-06T22:07:08.513Z,36.37
2019-02-06T22:09:38.068Z,35.37
2019-02-06T22:12:07.607Z,37.67
2019-02-06T22:14:37.241Z,33.07
2019-02-06T22:17:06.858Z,32.00
2019-02-06T22:19:36.981Z,40.50
2019-02-06T22:22:07.172Z,41.17
2019-02-06T22:24:38.721Z,44.13
2019-02-06T22:27:08.536Z,37.50
2019-02-06T22:29:38.565Z,33.33
2019-02-06T22:32:08.473Z,34.60
2019-02-06T22:34:38.272Z,33.37
2019-02-06T22:37:08.169Z,34.30
2019-02-06T22:39:37.727Z,36.50
2019-02-06T22:42:07.513Z,42.70
2019-02-06T22:44:37.725Z,38.50
2019-02-06T22:47:07.941Z,37.00
2019-02-06T22:49:38.060Z,37.80
2019-02-06T22:52:07.928Z,36.67
2019-02-06T22:54:37.768Z,48.87
2019-02-06T22:57:07.597Z,64.30
2019-02-06T22:59:37.409Z,57.17
2019-02-06T23:02:07.933Z,51.97
2019-02-06T23:04:38.165Z,42.20
2019-02-06T23:07:08.349Z,38.30
2019-02-06T23:09:38.193Z,35.97
2019-02-06T23:12:08.700Z,30.97
2019-02-06T23:14:38.634Z,34.00
2019-02-06T23:17:08.648Z,33.60
2019-02-06T23:19:38.576Z,36.17
2019-02-06T23:22:08.676Z,36.47
2019-02-06T23:24:38.220Z,37.87
2019-02-06T23:27:08.102Z,30.37
2019-02-06T23:29:58.565Z,35.23
2019-02-06T23:32:28.392Z,32.53
2019-02-06T23:34:58.313Z,32.77
2019-02-06T23:37:28.126Z,35.17
2019-02-06T23:39:58.041Z,31.10
2019-02-06T23:42:27.648Z,32.07
2019-02-06T23:44:57.216Z,31.40
2019-02-06T23:47:27.164Z,35.80
2019-02-06T23:49:58.613Z,35.63
2019-02-06T23:52:28.416Z,30.53
2019-02-06T23:54:58.047Z,36.00
2019-02-06T23:57:27.808Z,29.73
2019-02-06T23:59:57.652Z,38.30
